Time;durP1;ratioP1;P1;durP2;ratioP2;P2;SDS_P1;SDS_P2;PMS_P1;PMS_P2;Temp;Humidity;BMP_temperature;BMP_pressure;BME280_temperature;BME280_humidity;BME280_pressure;Samples;Min_cycle;Max_cycle;Signal;HPM_P1;HPM_P2
2021/07/25 00:02:25;;;;;;;15.40;10.58;;;;;;;20.94;61.80;100684.92;1730595;80;21027;-71
2021/07/25 00:04:51;;;;;;;13.53;10.08;;;;;;;20.88;61.80;100687.02;1741220;80;21046;-71
2021/07/25 00:07:18;;;;;;;15.88;9.55;;;;;;;20.87;61.98;100686.69;1771902;80;21084;-71
2021/07/25 00:09:44;;;;;;;13.03;8.68;;;;;;;20.90;62.48;100684.98;1774392;80;21145;-71
2021/07/25 00:12:11;;;;;;;14.73;9.20;;;;;;;20.94;62.74;100686.27;1774022;80;21043;-71
2021/07/25 00:14:38;;;;;;;16.25;9.78;;;;;;;20.96;62.84;100684.75;1773873;79;21047;-71
2021/07/25 00:17:04;;;;;;;15.60;8.95;;;;;;;20.93;62.40;100684.63;1750016;81;21081;-71
2021/07/25 00:19:31;;;;;;;12.07;9.33;;;;;;;20.92;62.90;100688.30;1752050;81;21057;-72
2021/07/25 00:21:58;;;;;;;15.13;9.70;;;;;;;20.90;62.64;100685.50;1741954;81;21044;-71
2021/07/25 00:24:30;;;;;;;14.03;10.63;;;;;;;20.86;62.82;100686.86;1707626;82;21061;-71
2021/07/25 00:26:53;;;;;;;13.98;9.93;;;;;;;20.81;62.74;100687.41;1764610;79;21090;-71
2021/07/25 00:29:19;;;;;;;15.55;10.85;;;;;;;20.73;62.68;100689.67;1750363;80;21002;-71
2021/07/25 00:31:46;;;;;;;13.03;9.48;;;;;;;20.66;62.69;100684.73;1768549;80;20999;-71
2021/07/25 00:34:13;;;;;;;15.60;11.15;;;;;;;20.60;62.83;100679.55;1749565;80;21101;-71
2021/07/25 00:36:39;;;;;;;15.48;10.93;;;;;;;20.57;63.56;100680.42;1766181;80;21447;-71
2021/07/25 00:39:10;;;;;;;15.40;10.15;;;;;;;20.62;64.13;100679.89;1788293;79;21046;-71
2021/07/25 00:41:34;;;;;;;17.80;10.63;;;;;;;20.64;64.46;100681.39;1768976;79;20992;-72
2021/07/25 00:44:00;;;;;;;17.30;10.78;;;;;;;20.60;63.87;100678.22;1756667;79;21590;-72
2021/07/25 00:46:27;;;;;;;14.83;10.28;;;;;;;20.53;63.75;100677.29;1766550;80;21046;-72
2021/07/25 00:48:53;;;;;;;14.50;10.95;;;;;;;20.49;63.85;100680.50;1775669;79;21007;-72
2021/07/25 00:51:20;;;;;;;16.23;10.70;;;;;;;20.41;63.74;100680.08;1722237;80;21058;-72
2021/07/25 00:53:47;;;;;;;20.40;10.82;;;;;;;20.37;64.14;100688.11;1765603;80;21723;-72
2021/07/25 00:56:14;;;;;;;15.80;11.05;;;;;;;20.31;64.08;100687.48;1729831;80;21054;-71
2021/07/25 00:58:42;;;;;;;15.00;11.60;;;;;;;20.27;63.97;100682.19;1773584;80;21471;-72
2021/07/25 01:01:11;;;;;;;14.30;9.85;;;;;;;20.20;64.32;100681.56;1737556;80;21613;-71
2021/07/25 01:04:12;;;;;;;15.68;10.93;;;;;;;20.18;64.51;100686.26;1751953;80;23163;-72
2021/07/25 01:07:03;;;;;;;13.68;10.45;;;;;;;20.22;64.52;100690.73;1786691;80;21022;-73
2021/07/25 01:09:55;;;;;;;14.70;11.25;;;;;;;20.26;64.43;100693.39;1754657;80;21085;-72
2021/07/25 01:12:50;;;;;;;16.07;9.85;;;;;;;20.25;64.61;100686.89;1786874;78;20996;-73
2021/07/25 01:15:21;;;;;;;14.68;9.50;;;;;;;20.23;64.92;100687.89;1772143;80;21038;-72
2021/07/25 01:17:48;;;;;;;14.70;10.65;;;;;;;20.21;64.90;100690.42;1767332;80;21102;-72
2021/07/25 01:20:15;;;;;;;14.05;10.45;;;;;;;20.18;64.81;100688.11;1776899;80;21019;-72
2021/07/25 01:22:45;;;;;;;14.20;10.38;;;;;;;20.17;64.68;100692.62;1775665;79;21054;-72
2021/07/25 01:25:14;;;;;;;14.00;10.23;;;;;;;20.15;64.60;100696.47;1741031;80;21085;-72
2021/07/25 01:28:21;;;;;;;15.10;10.90;;;;;;;20.09;64.54;100699.36;1711283;82;21106;-71
2021/07/25 01:30:57;;;;;;;16.10;10.65;;;;;;;20.03;64.76;100696.88;1771209;79;21123;-72
2021/07/25 01:33:30;;;;;;;13.53;10.80;;;;;;;20.05;64.97;100702.05;1742439;80;21101;-71
2021/07/25 01:35:58;;;;;;;17.80;10.23;;;;;;;20.06;65.11;100702.38;1774698;79;21043;-72
2021/07/25 01:38:25;;;;;;;16.52;10.10;;;;;;;20.08;65.09;100702.21;1772546;79;21384;-72
2021/07/25 01:41:07;;;;;;;13.93;11.25;;;;;;;20.06;64.90;100706.91;1768585;79;21150;-72
2021/07/25 01:43:37;;;;;;;15.88;10.50;;;;;;;20.02;64.88;100693.05;1794589;78;21153;-72
2021/07/25 01:46:04;;;;;;;14.13;10.32;;;;;;;19.99;64.82;100697.43;1730810;81;21022;-72
2021/07/25 01:48:31;;;;;;;14.70;10.63;;;;;;;19.95;64.78;100696.10;1793152;80;20991;-72
2021/07/25 01:50:58;;;;;;;15.38;11.18;;;;;;;19.93;64.78;100691.45;1766172;80;21087;-72
2021/07/25 01:53:25;;;;;;;15.25;10.85;;;;;;;19.88;64.67;100695.98;1761521;80;21065;-72
2021/07/25 01:55:51;;;;;;;12.85;9.33;;;;;;;19.88;64.65;100694.64;1730208;81;21781;-72
2021/07/25 01:58:18;;;;;;;14.33;10.23;;;;;;;19.92;64.65;100689.78;1792076;80;21062;-72
2021/07/25 02:00:44;;;;;;;14.93;10.25;;;;;;;19.93;64.60;100694.94;1725715;82;21520;-72
2021/07/25 02:03:11;;;;;;;14.93;11.45;;;;;;;19.94;64.77;100693.95;1765017;80;21067;-72
2021/07/25 02:05:38;;;;;;;14.93;10.88;;;;;;;19.93;65.04;100702.95;1746842;81;21064;-72
2021/07/25 02:08:06;;;;;;;14.85;11.25;;;;;;;19.91;65.06;100700.15;1773035;80;21637;-72
2021/07/25 02:10:32;;;;;;;15.30;10.68;;;;;;;19.89;65.38;100703.48;1783314;80;21019;-71
2021/07/25 02:12:59;;;;;;;18.57;10.38;;;;;;;19.88;65.40;100710.66;1783945;80;22201;-71
2021/07/25 02:15:26;;;;;;;20.72;10.63;;;;;;;19.86;65.25;100709.50;1784846;80;21050;-72
2021/07/25 02:17:52;;;;;;;14.98;10.70;;;;;;;19.84;65.12;100708.85;1794011;78;21024;-72
2021/07/25 02:20:20;;;;;;;16.77;10.48;;;;;;;19.83;64.80;100708.52;1792875;80;21430;-72
2021/07/25 02:22:47;;;;;;;15.60;10.20;;;;;;;19.84;64.68;100704.84;1763044;80;21120;-72
2021/07/25 02:25:13;;;;;;;14.65;10.70;;;;;;;19.82;64.73;100705.53;1759440;80;20985;-72
2021/07/25 02:27:40;;;;;;;15.80;10.55;;;;;;;19.82;64.84;100714.03;1764631;80;21587;-72
2021/07/25 02:30:09;;;;;;;14.07;11.20;;;;;;;19.80;64.92;100716.90;1764627;80;21054;-72
2021/07/25 02:32:35;;;;;;;14.80;11.28;;;;;;;19.77;64.86;100716.39;1750396;80;21130;-72
2021/07/25 02:35:02;;;;;;;14.47;11.75;;;;;;;19.72;65.04;100716.91;1765981;80;21553;-72
2021/07/25 02:37:29;;;;;;;13.53;10.58;;;;;;;19.67;65.18;100713.94;1771249;80;20995;-72
2021/07/25 02:39:56;;;;;;;13.98;10.58;;;;;;;19.63;65.33;100719.27;1777109;79;21109;-72
2021/07/25 02:42:22;;;;;;;15.00;11.35;;;;;;;19.62;65.55;100717.63;1772091;79;21632;-71
2021/07/25 02:44:49;;;;;;;16.40;10.95;;;;;;;19.65;65.67;100715.92;1746908;80;21081;-71
2021/07/25 02:47:15;;;;;;;14.98;11.73;;;;;;;19.67;65.57;100717.42;1766594;79;21558;-71
2021/07/25 02:49:41;;;;;;;17.00;11.00;;;;;;;19.70;65.44;100722.90;1774432;80;21110;-71
2021/07/25 02:52:09;;;;;;;13.90;10.78;;;;;;;19.68;65.46;100724.92;1748511;80;21098;-72
2021/07/25 02:54:36;;;;;;;15.72;11.35;;;;;;;19.67;65.54;100724.61;1777410;79;21030;-72
2021/07/25 02:57:03;;;;;;;14.33;10.63;;;;;;;19.66;65.34;100725.61;1744585;80;21758;-72
2021/07/25 02:59:30;;;;;;;13.00;10.15;;;;;;;19.65;65.24;100731.45;1732873;80;21078;-71
2021/07/25 03:01:57;;;;;;;15.30;10.43;;;;;;;19.64;65.51;100738.30;1761123;79;21070;-72
2021/07/25 03:04:24;;;;;;;16.85;10.68;;;;;;;19.65;65.56;100733.27;1765143;79;21493;-71
2021/07/25 03:06:52;;;;;;;15.03;10.43;;;;;;;19.71;65.43;100733.92;1770332;80;21081;-64
2021/07/25 03:09:18;;;;;;;13.78;10.32;;;;;;;19.73;65.40;100735.91;1774472;79;21143;-73
2021/07/25 03:11:46;;;;;;;17.00;11.05;;;;;;;19.74;65.05;100740.25;1774022;80;21090;-73
2021/07/25 03:14:13;;;;;;;14.70;10.40;;;;;;;19.70;64.92;100737.58;1762277;79;21518;-72
2021/07/25 03:16:40;;;;;;;15.70;11.73;;;;;;;19.63;64.95;100742.78;1767777;79;21072;-72
2021/07/25 03:19:06;;;;;;;15.20;11.90;;;;;;;19.55;65.02;100750.85;1775068;79;21100;-72
2021/07/25 03:21:33;;;;;;;14.75;11.18;;;;;;;19.47;65.04;100746.36;1771855;80;21085;-72
2021/07/25 03:23:59;;;;;;;14.40;10.90;;;;;;;19.42;65.21;100748.72;1736161;80;21014;-72
2021/07/25 03:26:26;;;;;;;15.70;11.63;;;;;;;19.43;65.40;100752.20;1770945;80;21493;-71
2021/07/25 03:28:54;;;;;;;14.30;10.58;;;;;;;19.51;65.27;100754.85;1741362;80;21035;-72
2021/07/25 03:31:20;;;;;;;16.40;11.05;;;;;;;19.58;65.27;100759.00;1764815;80;21057;-72
2021/07/25 03:33:46;;;;;;;14.25;10.90;;;;;;;19.63;65.20;100756.64;1772942;80;21468;-73
2021/07/25 03:36:13;;;;;;;16.25;11.43;;;;;;;19.66;65.15;100758.97;1769693;80;21075;-73
2021/07/25 03:38:41;;;;;;;15.45;11.53;;;;;;;19.69;65.02;100757.30;1765330;79;21093;-73
2021/07/25 03:41:08;;;;;;;15.28;11.20;;;;;;;19.73;65.06;100769.79;1770657;80;21006;-73
2021/07/25 03:43:34;;;;;;;15.80;11.93;;;;;;;19.76;64.98;100765.48;1771729;80;20995;-73
2021/07/25 03:46:02;;;;;;;15.63;10.50;;;;;;;19.80;64.99;100769.45;1771981;79;21102;-73
2021/07/25 03:48:29;;;;;;;16.60;11.55;;;;;;;19.89;64.76;100772.91;1771698;80;21073;-74
2021/07/25 03:50:56;;;;;;;16.00;10.55;;;;;;;19.99;64.67;100766.88;1768351;80;21057;-73
2021/07/25 03:53:23;;;;;;;13.55;10.43;;;;;;;20.08;64.30;100772.48;1771961;79;21845;-72
2021/07/25 03:55:50;;;;;;;16.77;11.25;;;;;;;20.14;63.92;100777.61;1785697;79;21105;-67
2021/07/25 03:58:17;;;;;;;17.75;12.03;;;;;;;20.16;63.73;100780.45;1753546;80;21845;-72
2021/07/25 04:00:43;;;;;;;16.10;11.50;;;;;;;20.18;63.71;100778.43;1768686;79;21082;-73
2021/07/25 04:03:09;;;;;;;16.10;10.10;;;;;;;20.23;63.53;100781.41;1765498;79;21097;-73
2021/07/25 04:05:36;;;;;;;15.18;11.03;;;;;;;20.27;63.36;100779.20;1741977;79;21044;-73
2021/07/25 04:08:10;;;;;;;13.85;10.08;;;;;;;20.30;63.10;100770.02;1768199;80;21059;-72
2021/07/25 04:10:41;;;;;;;15.32;11.10;;;;;;;20.34;62.87;100773.98;1774420;80;21082;-73
2021/07/25 04:13:09;;;;;;;14.98;11.57;;;;;;;20.36;63.11;100775.48;1774896;79;21089;-72
2021/07/25 04:15:42;;;;;;;13.62;10.72;;;;;;;20.42;63.05;100776.60;1751951;80;21066;-72
2021/07/25 04:18:09;;;;;;;13.00;10.03;;;;;;;20.51;62.84;100776.03;1777066;79;21305;-71
2021/07/25 04:20:35;;;;;;;15.88;11.00;;;;;;;20.59;62.92;100771.97;1773209;80;21540;-73
2021/07/25 04:23:03;;;;;;;13.88;10.18;;;;;;;20.65;62.94;100770.47;1776227;79;21328;-73
2021/07/25 04:25:30;;;;;;;17.42;11.18;;;;;;;20.69;63.02;100780.60;1772576;79;21051;-73
2021/07/25 04:27:58;;;;;;;15.48;10.82;;;;;;;20.73;63.13;100778.43;1743868;79;21078;-73
2021/07/25 04:30:27;;;;;;;13.93;10.18;;;;;;;20.76;63.15;100781.57;1768636;79;21058;-73
2021/07/25 04:32:54;;;;;;;15.83;10.85;;;;;;;20.80;63.29;100781.22;1750068;79;21054;-73
2021/07/25 04:35:23;;;;;;;16.67;11.48;;;;;;;20.84;63.36;100783.33;1777413;79;21576;-72
2021/07/25 04:37:54;;;;;;;11.88;9.68;;;;;;;20.92;63.36;100781.09;1727569;80;21079;-73
2021/07/25 04:40:22;;;;;;;14.23;10.28;;;;;;;21.06;63.45;100780.80;1789724;78;21061;-73
2021/07/25 04:42:54;;;;;;;14.45;11.28;;;;;;;21.16;63.22;100776.01;1776589;80;21089;-73
2021/07/25 04:45:36;;;;;;;15.45;10.48;;;;;;;21.26;63.04;100787.78;1788110;78;22250;-73
2021/07/25 04:48:31;;;;;;;13.53;11.22;;;;;;;21.31;62.93;100784.88;1787686;78;21097;-69
2021/07/25 04:51:03;;;;;;;13.63;11.43;;;;;;;21.37;62.82;100793.18;1788606;79;21656;-64
2021/07/25 04:53:31;;;;;;;13.32;10.60;;;;;;;21.41;62.48;100787.80;1780325;78;20995;-66
2021/07/25 04:56:00;;;;;;;16.23;11.90;;;;;;;21.46;62.59;100792.91;1722594;80;21564;-69
2021/07/25 04:58:54;;;;;;;15.18;11.43;;;;;;;21.52;62.39;100799.43;1778992;79;21066;-74
2021/07/25 05:01:31;;;;;;;16.90;11.05;;;;;;;21.56;62.11;100789.17;1745196;80;21058;-73
2021/07/25 05:03:56;;;;;;;13.15;10.50;;;;;;;21.64;62.15;100795.78;1779062;78;21466;-75
2021/07/25 05:06:23;;;;;;;14.00;10.03;;;;;;;21.74;62.09;100794.98;1784028;80;21654;-74
2021/07/25 05:08:50;;;;;;;19.60;10.95;;;;;;;21.84;61.90;100799.54;1781871;80;21034;-70
2021/07/25 05:11:21;;;;;;;14.58;10.85;;;;;;;21.95;61.49;100795.53;1750012;79;21112;-69
2021/07/25 05:13:51;;;;;;;16.48;11.75;;;;;;;22.04;60.81;100797.59;1775394;79;21259;-70
2021/07/25 05:16:42;;;;;;;16.48;11.78;;;;;;;22.10;60.72;100798.70;1752378;79;20990;-73
2021/07/25 05:19:32;;;;;;;14.75;10.43;;;;;;;22.15;60.82;100795.77;1782674;79;22440;-74
2021/07/25 05:22:33;;;;;;;14.28;10.93;;;;;;;22.21;60.51;100797.70;1778922;79;21143;-74
2021/07/25 05:25:02;;;;;;;15.30;10.88;;;;;;;22.25;59.73;100795.47;1780552;79;21046;-74
2021/07/25 05:27:37;;;;;;;13.68;10.32;;;;;;;22.29;58.98;100794.61;1758592;80;21094;-70
2021/07/25 05:30:05;;;;;;;13.25;9.85;;;;;;;22.30;58.96;100798.44;1779939;79;20971;-71
2021/07/25 05:32:32;;;;;;;15.50;10.80;;;;;;;22.35;59.26;100792.00;1774296;80;21714;-74
2021/07/25 05:34:58;;;;;;;17.98;10.50;;;;;;;22.41;58.49;100797.13;1757214;80;21080;-74
2021/07/25 05:37:25;;;;;;;14.93;11.50;;;;;;;22.43;58.06;100795.91;1793407;77;21174;-72
2021/07/25 05:39:52;;;;;;;14.80;10.45;;;;;;;22.47;57.86;100801.70;1782140;79;22087;-70
2021/07/25 05:42:19;;;;;;;12.18;10.00;;;;;;;22.50;57.59;100797.83;1780934;80;21040;-74
2021/07/25 05:44:46;;;;;;;13.18;10.55;;;;;;;22.55;57.65;100800.77;1778680;79;21061;-74
2021/07/25 05:47:13;;;;;;;15.48;10.00;;;;;;;22.63;57.21;100795.28;1751723;80;21040;-73
2021/07/25 05:49:39;;;;;;;14.43;9.70;;;;;;;22.78;56.87;100796.03;1752705;79;21614;-73
2021/07/25 05:52:06;;;;;;;15.23;10.03;;;;;;;22.94;57.11;100796.77;1753231;80;21490;-75
2021/07/25 05:54:33;;;;;;;13.90;10.03;;;;;;;23.07;56.64;100801.45;1791515;78;21044;-73
2021/07/25 05:57:00;;;;;;;15.53;9.43;;;;;;;23.15;55.90;100795.42;1775280;79;21611;-73
2021/07/25 05:59:27;;;;;;;13.65;10.08;;;;;;;23.26;55.24;100803.95;1770653;79;21030;-73
2021/07/25 06:01:54;;;;;;;15.32;10.45;;;;;;;23.37;55.01;100800.73;1777053;79;21077;-67
2021/07/25 06:04:20;;;;;;;14.90;10.53;;;;;;;23.47;55.76;100794.48;1743047;80;21095;-65
2021/07/25 06:06:48;;;;;;;15.23;10.85;;;;;;;23.58;55.66;100793.61;1774423;78;21006;-68
2021/07/25 06:09:15;;;;;;;14.23;9.70;;;;;;;23.68;55.59;100799.44;1786343;78;21137;-68
2021/07/25 06:11:43;;;;;;;14.83;10.82;;;;;;;23.75;56.50;100802.98;1755010;80;21551;-71
2021/07/25 06:14:09;;;;;;;14.30;9.70;;;;;;;23.80;56.42;100796.49;1765820;79;21087;-64
2021/07/25 06:16:38;;;;;;;14.10;9.63;;;;;;;23.85;55.07;100795.93;1756962;80;22417;-64
2021/07/25 06:19:04;;;;;;;15.43;10.93;;;;;;;23.90;53.89;100796.97;1778263;80;21027;-62
2021/07/25 06:21:31;;;;;;;14.05;11.40;;;;;;;23.96;55.12;100797.23;1776552;80;21031;-64
2021/07/25 06:23:58;;;;;;;15.88;11.83;;;;;;;24.00;55.84;100803.33;1786597;78;21627;-63
2021/07/25 06:26:24;;;;;;;12.15;9.60;;;;;;;24.09;56.36;100798.59;1744709;80;21084;-60
2021/07/25 06:28:51;;;;;;;13.25;9.25;;;;;;;24.19;53.87;100800.41;1755225;80;21621;-58
2021/07/25 06:31:18;;;;;;;15.65;11.10;;;;;;;24.29;55.92;100802.19;1787858;78;21032;-63
2021/07/25 06:33:44;;;;;;;12.25;9.73;;;;;;;24.37;56.61;100797.64;1790566;78;20999;-61
2021/07/25 06:36:12;;;;;;;13.83;10.13;;;;;;;24.45;56.18;100804.18;1742945;79;21094;-73
2021/07/25 06:38:40;;;;;;;11.95;9.85;;;;;;;24.52;54.32;100802.84;1764002;79;21568;-71
2021/07/25 06:41:07;;;;;;;13.10;9.83;;;;;;;24.58;53.78;100800.69;1773731;79;21842;-71
2021/07/25 06:43:34;;;;;;;14.80;8.88;;;;;;;24.63;52.94;100797.72;1773974;79;21512;-68
2021/07/25 06:46:03;;;;;;;16.60;10.00;;;;;;;24.70;52.39;100796.91;1777343;80;21102;-68
2021/07/25 06:48:31;;;;;;;11.22;8.85;;;;;;;24.78;53.49;100802.05;1774655;79;21034;-71
2021/07/25 06:51:00;;;;;;;11.25;8.90;;;;;;;24.85;52.80;100796.18;1773917;80;21031;-72
2021/07/25 06:53:29;;;;;;;15.63;9.48;;;;;;;24.89;52.33;100797.41;1769348;80;21114;-71
2021/07/25 06:56:00;;;;;;;12.10;8.63;;;;;;;24.94;52.33;100801.65;1772739;80;21129;-74
2021/07/25 06:58:28;;;;;;;11.65;8.98;;;;;;;25.01;52.36;100804.34;1746848;80;21659;-71
2021/07/25 07:00:54;;;;;;;14.40;9.25;;;;;;;25.04;51.91;100808.78;1774929;79;21050;-66
2021/07/25 07:03:20;;;;;;;14.47;7.20;;;;;;;25.09;52.10;100808.70;1780757;80;21537;-66
2021/07/25 07:05:47;;;;;;;12.05;8.73;;;;;;;25.15;53.05;100808.69;1762080;80;21537;-67
2021/07/25 07:08:13;;;;;;;10.00;7.90;;;;;;;25.24;52.62;100807.13;1793918;78;21469;-68
2021/07/25 07:10:42;;;;;;;11.55;9.00;;;;;;;25.32;52.60;100817.72;1792883;80;21044;-67
2021/07/25 07:13:12;;;;;;;12.50;8.98;;;;;;;25.40;51.06;100818.81;1760947;80;21021;-67
2021/07/25 07:15:43;;;;;;;11.35;8.75;;;;;;;25.47;52.20;100814.27;1756321;80;21603;-66
2021/07/25 07:18:09;;;;;;;14.13;8.85;;;;;;;25.54;53.44;100815.59;1776685;80;21093;-66
2021/07/25 07:20:39;;;;;;;13.30;9.00;;;;;;;25.59;53.66;100816.61;1777336;80;21635;-67
2021/07/25 07:23:10;;;;;;;13.93;9.00;;;;;;;25.64;53.31;100815.12;1776566;79;21066;-67
2021/07/25 07:25:44;;;;;;;12.50;9.20;;;;;;;25.72;53.37;100813.55;1753913;80;21505;-66
2021/07/25 07:28:10;;;;;;;15.13;8.50;;;;;;;25.80;54.15;100807.92;1742706;81;21512;-66
2021/07/25 07:30:37;;;;;;;10.72;8.25;;;;;;;25.89;54.33;100813.40;1762778;80;21522;-67
2021/07/25 07:33:15;;;;;;;12.73;9.00;;;;;;;25.98;54.08;100812.66;1757432;79;21138;-66
2021/07/25 07:35:43;;;;;;;12.78;9.10;;;;;;;26.04;53.96;100808.27;1770197;79;21043;-66
2021/07/25 07:38:11;;;;;;;11.18;8.73;;;;;;;26.10;53.93;100808.23;1774295;80;21085;-67
2021/07/25 07:40:38;;;;;;;11.33;8.73;;;;;;;26.19;54.43;100812.03;1784165;78;21116;-67
2021/07/25 07:43:06;;;;;;;10.53;8.18;;;;;;;26.23;52.98;100807.88;1792333;80;21126;-66
2021/07/25 07:45:34;;;;;;;13.68;9.75;;;;;;;26.28;53.20;100807.52;1775850;80;21052;-66
2021/07/25 07:48:00;;;;;;;10.88;8.68;;;;;;;26.36;53.59;100814.55;1755954;80;21016;-68
2021/07/25 07:50:27;;;;;;;11.53;8.93;;;;;;;26.42;53.26;100805.56;1761998;78;21065;-66
2021/07/25 07:52:53;;;;;;;10.85;8.93;;;;;;;26.43;53.02;100811.80;1787480;80;21108;-67
2021/07/25 07:55:20;;;;;;;12.20;8.83;;;;;;;26.44;53.32;100808.86;1785120;78;21570;-67
2021/07/25 07:57:47;;;;;;;11.40;9.20;;;;;;;26.48;53.16;100813.33;1777873;78;21128;-66
2021/07/25 08:00:13;;;;;;;12.28;9.20;;;;;;;26.47;53.44;100817.06;1788134;78;21061;-67
2021/07/25 08:02:42;;;;;;;15.45;9.53;;;;;;;26.49;53.30;100811.77;1789267;79;21045;-67
2021/07/25 08:05:10;;;;;;;11.68;8.78;;;;;;;26.53;52.94;100817.55;1760972;80;21081;-65
2021/07/25 08:07:37;;;;;;;12.50;9.03;;;;;;;26.55;52.97;100814.10;1790142;78;21072;-65
2021/07/25 08:10:05;;;;;;;10.82;9.00;;;;;;;26.62;52.77;100816.75;1761596;80;21441;-65
2021/07/25 08:12:31;;;;;;;11.78;8.70;;;;;;;26.67;51.88;100820.47;1787721;80;21571;-66
2021/07/25 08:14:58;;;;;;;10.95;8.80;;;;;;;26.71;51.78;100817.34;1790986;80;21018;-66
2021/07/25 08:17:24;;;;;;;10.13;7.60;;;;;;;26.73;51.61;100818.78;1788317;79;21462;-66
2021/07/25 08:19:51;;;;;;;12.55;8.68;;;;;;;26.77;51.36;100821.34;1790493;78;21481;-66
2021/07/25 08:22:17;;;;;;;11.55;8.28;;;;;;;26.84;50.87;100822.64;1787954;78;21513;-67
2021/07/25 08:24:44;;;;;;;11.83;8.55;;;;;;;26.93;50.65;100818.59;1767295;80;21556;-66
2021/07/25 08:27:10;;;;;;;11.70;8.83;;;;;;;27.01;50.03;100822.91;1759141;80;22182;-64
2021/07/25 08:29:37;;;;;;;9.40;7.53;;;;;;;27.06;50.28;100809.03;1755370;80;21080;-66
2021/07/25 08:32:05;;;;;;;12.10;7.15;;;;;;;27.13;49.91;100810.32;1785633;78;21142;-66
2021/07/25 08:34:33;;;;;;;12.45;7.97;;;;;;;27.18;49.88;100811.83;1754350;81;21113;-66
2021/07/25 08:37:00;;;;;;;10.93;8.25;;;;;;;27.24;49.18;100804.20;1790167;78;21085;-66
2021/07/25 08:39:26;;;;;;;11.97;8.55;;;;;;;27.31;48.90;100811.45;1790499;80;21607;-66
2021/07/25 08:42:08;;;;;;;10.98;8.30;;;;;;;27.35;48.89;100812.14;1753942;80;21088;-66
2021/07/25 08:44:53;;;;;;;9.38;6.78;;;;;;;27.41;48.57;100808.52;1787852;80;21868;-65
2021/07/25 08:47:30;;;;;;;11.83;7.65;;;;;;;27.49;47.63;100806.56;1748467;80;21037;-66
2021/07/25 08:50:10;;;;;;;13.22;7.50;;;;;;;27.58;47.00;100807.39;1769001;80;21097;-65
2021/07/25 08:52:45;;;;;;;10.35;7.75;;;;;;;27.69;47.42;100811.74;1729313;81;21499;-65
2021/07/25 08:55:15;;;;;;;7.17;5.35;;;;;;;27.79;46.51;100812.06;1757559;79;27103;-70
2021/07/25 08:57:44;;;;;;;11.80;7.00;;;;;;;27.93;45.48;100812.21;1758816;81;21114;-64
2021/07/25 09:00:13;;;;;;;10.08;6.05;;;;;;;28.07;45.22;100816.91;1783736;80;21328;-70
2021/07/25 09:02:40;;;;;;;11.10;5.80;;;;;;;28.23;43.59;100812.76;1793221;80;21021;-70
2021/07/25 09:05:07;;;;;;;9.10;6.62;;;;;;;28.35;43.05;100808.20;1764667;80;21016;-70
2021/07/25 09:07:34;;;;;;;8.15;5.87;;;;;;;28.45;42.54;100815.77;1746835;80;21066;-69
2021/07/25 09:10:05;;;;;;;8.85;5.30;;;;;;;28.47;42.37;100811.48;1739031;80;21546;-71
2021/07/25 09:12:33;;;;;;;7.35;5.33;;;;;;;28.53;41.94;100809.20;1773618;80;21032;-68
2021/07/25 09:15:06;;;;;;;8.15;5.85;;;;;;;28.59;40.75;100809.64;1763254;80;21590;-70
2021/07/25 09:17:32;;;;;;;7.92;5.65;;;;;;;28.65;40.54;100811.97;1748957;81;21078;-70
2021/07/25 09:20:18;;;;;;;8.00;5.72;;;;;;;28.69;39.98;100817.20;1750754;81;21067;-70
2021/07/25 09:22:54;;;;;;;;;;;;;;;28.76;38.00;100811.14;1786932;79;21135;-69
2021/07/25 09:25:27;;;;;;;;;;;;;;;28.75;37.44;100812.73;1775392;79;20223;-69
2021/07/25 09:28:02;;;;;;;8.70;5.70;;;;;;;28.70;39.52;100818.33;1776806;80;20182;-70
2021/07/25 09:30:29;;;;;;;9.48;6.22;;;;;;;28.66;37.06;100809.00;1774632;79;21537;-70
2021/07/25 09:32:56;;;;;;;7.53;5.12;;;;;;;28.65;37.02;100814.67;1757028;80;21092;-69
2021/07/25 09:35:37;;;;;;;9.35;6.22;;;;;;;28.61;37.34;100814.29;1747322;80;21062;-68
2021/07/25 09:38:09;;;;;;;8.68;5.92;;;;;;;28.64;37.74;100818.43;1761342;80;21034;-69
2021/07/25 09:40:37;;;;;;;7.30;5.30;;;;;;;28.68;38.36;100819.60;1757185;81;21053;-70
2021/07/25 09:43:11;;;;;;;9.85;5.53;;;;;;;28.68;39.25;100820.45;1769034;80;21078;-68
2021/07/25 09:45:54;;;;;;;8.70;4.97;;;;;;;28.69;38.74;100819.91;1750478;80;21091;-69
2021/07/25 09:48:34;;;;;;;9.05;5.80;;;;;;;28.70;39.10;100820.22;1773663;80;21014;-68
2021/07/25 09:51:20;;;;;;;9.40;5.55;;;;;;;28.72;37.66;100822.97;1746751;80;21080;-68
2021/07/25 09:53:48;;;;;;;8.70;5.67;;;;;;;28.74;36.88;100815.97;1721701;82;21083;-67
2021/07/25 09:56:19;;;;;;;11.63;6.17;;;;;;;28.72;36.00;100817.56;1749350;80;21089;-70
2021/07/25 10:10:55;;;;;;;7.78;5.25;;;;;;;30.14;33.46;100824.75;1813719;77;22846;-69
2021/07/25 10:13:30;;;;;;;8.13;6.15;;;;;;;30.20;33.73;100827.31;1773404;80;21109;-67
2021/07/25 10:15:59;;;;;;;8.78;5.33;;;;;;;30.10;34.44;100821.70;1754810;78;21061;-69
2021/07/25 10:18:27;;;;;;;9.60;6.33;;;;;;;30.01;34.86;100824.52;1770730;80;20985;-67
2021/07/25 10:20:58;;;;;;;10.18;6.45;;;;;;;29.87;34.91;100812.29;1769216;79;21398;-69
2021/07/25 10:23:35;;;;;;;7.37;5.35;;;;;;;29.75;35.26;100819.89;1783374;78;22149;-67
2021/07/25 10:26:03;;;;;;;7.28;5.72;;;;;;;29.70;35.02;100820.33;1749157;78;21389;-69
2021/07/25 10:28:30;;;;;;;9.00;5.70;;;;;;;29.62;34.39;100820.16;1734567;81;21010;-71
2021/07/25 10:30:56;;;;;;;9.88;5.62;;;;;;;29.56;35.03;100817.88;1763957;79;21082;-69
2021/07/25 10:33:23;;;;;;;8.95;5.75;;;;;;;29.53;34.99;100818.35;1764481;80;20983;-69
2021/07/25 10:35:49;;;;;;;7.65;5.30;;;;;;;29.49;34.76;100819.06;1781357;78;21038;-68
2021/07/25 10:38:16;;;;;;;8.15;5.45;;;;;;;29.47;34.71;100822.00;1771284;79;21072;-68
2021/07/25 10:40:44;;;;;;;8.33;6.03;;;;;;;29.45;34.38;100824.13;1782868;80;21080;-69
2021/07/25 10:43:11;;;;;;;7.58;5.50;;;;;;;29.43;35.01;100830.33;1769081;80;21094;-70
2021/07/25 10:45:37;;;;;;;10.00;5.95;;;;;;;29.43;35.02;100829.79;1754931;79;21110;-70
2021/07/25 10:48:15;;;;;;;7.58;5.40;;;;;;;29.45;34.92;100829.05;1749059;79;21026;-70
2021/07/25 10:50:42;;;;;;;8.48;6.08;;;;;;;29.52;34.99;100824.86;1775916;80;21552;-68
2021/07/25 10:53:21;;;;;;;8.13;6.20;;;;;;;29.60;33.97;100824.45;1780745;79;21849;-66
2021/07/25 10:55:49;;;;;;;9.78;5.67;;;;;;;29.64;33.89;100822.94;1767494;78;21109;-68
2021/07/25 10:58:19;;;;;;;8.53;5.62;;;;;;;29.69;34.14;100824.09;1772646;80;21052;-70
2021/07/25 11:00:55;;;;;;;9.03;5.92;;;;;;;29.76;34.90;100829.69;1783515;79;21052;-68
2021/07/25 11:03:35;;;;;;;7.58;5.80;;;;;;;29.81;35.32;100820.33;1760917;80;21132;-68
2021/07/25 11:06:15;;;;;;;8.43;5.03;;;;;;;29.87;35.20;100816.36;1772445;79;21563;-68
2021/07/25 11:08:43;;;;;;;9.48;5.78;;;;;;;29.92;35.12;100817.81;1767407;80;21057;-70
2021/07/25 11:11:40;;;;;;;9.10;6.40;;;;;;;29.91;34.95;100814.80;1746837;78;21490;-70
2021/07/25 11:14:07;;;;;;;10.10;6.78;;;;;;;29.89;35.10;100809.64;1728402;81;21030;-70
2021/07/25 11:16:42;;;;;;;13.98;7.08;;;;;;;29.87;36.50;100811.75;1744712;80;21130;-73
2021/07/25 11:19:19;;;;;;;11.90;6.55;;;;;;;29.87;36.32;100809.03;1718519;81;21059;-67
2021/07/25 11:21:53;;;;;;;9.98;6.42;;;;;;;29.87;35.67;100817.72;1722320;81;21039;-69
2021/07/25 11:24:28;;;;;;;14.60;6.65;;;;;;;29.89;35.11;100813.72;1753932;80;21058;-64
2021/07/25 11:26:56;;;;;;;10.03;6.47;;;;;;;29.94;34.64;100816.52;1746473;80;21114;-68
2021/07/25 11:29:37;;;;;;;10.55;6.45;;;;;;;29.98;34.55;100808.72;1748934;80;21364;-71
2021/07/25 11:32:07;;;;;;;9.18;6.55;;;;;;;30.04;33.82;100807.73;1739082;80;21570;-69
2021/07/25 11:34:36;;;;;;;9.60;6.50;;;;;;;30.12;34.60;100805.17;1734763;81;21549;-70
2021/07/25 11:37:06;;;;;;;9.93;6.53;;;;;;;30.23;35.87;100807.02;1744666;80;21000;-69
2021/07/25 11:39:33;;;;;;;12.05;6.85;;;;;;;30.39;35.51;100798.63;1745313;80;21049;-69